createdAt,value
2019-02-02T06:20:51.101Z,21.77
2019-02-02T06:23:20.666Z,19.00
2019-02-02T06:25:50.295Z,32.20
2019-02-02T06:28:19.948Z,19.40
2019-02-02T06:30:49.551Z,28.67
2019-02-02T06:33:19.096Z,23.47
2019-02-02T06:35:48.845Z,18.20
2019-02-02T06:38:18.382Z,17.30
2019-02-02T06:40:47.931Z,18.03
2019-02-02T06:43:17.675Z,24.03
2019-02-02T06:45:47.232Z,25.03
2019-02-02T06:48:16.825Z,26.10
2019-02-02T06:50:46.406Z,26.90
2019-02-02T06:53:16.005Z,22.13
2019-02-02T06:55:45.732Z,20.30
2019-02-02T06:58:15.263Z,8.37
2019-02-02T07:00:44.794Z,15.93
2019-02-02T07:03:14.524Z,28.23
2019-02-02T07:05:44.088Z,33.23
2019-02-02T07:08:13.633Z,27.90
2019-02-02T07:10:43.315Z,24.10
2019-02-02T07:13:12.916Z,8.90
2019-02-02T07:15:42.574Z,9.73
2019-02-02T07:18:12.143Z,8.60
2019-02-02T07:20:41.694Z,18.30
2019-02-02T07:23:11.267Z,14.40
2019-02-02T07:25:40.962Z,10.87
2019-02-02T07:28:10.595Z,9.30
2019-02-02T07:30:40.110Z,3.00
2019-02-02T07:33:09.634Z,3.03
2019-02-02T07:35:39.229Z,3.17
2019-02-02T07:38:08.893Z,3.47
2019-02-02T07:40:38.520Z,3.17
2019-02-02T07:43:08.112Z,2.33
2019-02-02T07:45:37.754Z,2.33
2019-02-02T07:48:07.427Z,2.27
2019-02-02T07:50:37.073Z,2.57
2019-02-02T07:53:06.697Z,2.17
2019-02-02T07:55:36.358Z,2.10
2019-02-02T07:58:05.951Z,2.60
2019-02-02T08:00:41.532Z,2.10
2019-02-02T08:03:10.509Z,2.07
2019-02-02T08:05:40.142Z,2.80
2019-02-02T08:08:09.758Z,2.27
2019-02-02T08:10:39.361Z,1.90
2019-02-02T08:13:08.933Z,3.03
2019-02-02T08:15:38.540Z,1.30
2019-02-02T08:18:08.251Z,2.10
2019-02-02T08:20:37.961Z,4.97
2019-02-02T08:23:07.512Z,2.07
2019-02-02T08:25:37.025Z,5.30
2019-02-02T08:28:06.655Z,2.20
2019-02-02T08:30:36.428Z,2.57
2019-02-02T08:33:06.422Z,3.37
2019-02-02T08:35:35.954Z,3.10
2019-02-02T08:38:05.979Z,2.00
2019-02-02T08:40:35.535Z,2.13
2019-02-02T08:43:05.158Z,3.80
2019-02-02T08:45:34.684Z,2.90
2019-02-02T08:48:04.269Z,2.37
2019-02-02T08:50:39.026Z,2.93
2019-02-02T08:53:08.553Z,2.23
2019-02-02T08:55:38.304Z,2.27
2019-02-02T08:58:08.021Z,3.13
2019-02-02T09:00:37.555Z,3.10
2019-02-02T09:03:07.269Z,2.50
2019-02-02T09:05:36.860Z,2.57
2019-02-02T09:08:06.480Z,3.13
2019-02-02T09:10:36.566Z,3.70
2019-02-02T09:13:06.342Z,3.30
2019-02-02T09:15:35.898Z,3.20
2019-02-02T09:18:05.606Z,3.00
2019-02-02T09:20:35.200Z,3.30
2019-02-02T09:23:06.720Z,3.67
2019-02-02T09:25:36.609Z,4.53
2019-02-02T09:28:06.144Z,5.60
2019-02-02T09:30:37.601Z,9.90
2019-02-02T09:33:07.776Z,9.10
2019-02-02T09:35:37.465Z,9.50
2019-02-02T09:38:07.196Z,8.50
2019-02-02T09:40:36.738Z,9.07
2019-02-02T09:43:06.340Z,7.67
2019-02-02T09:45:36.968Z,7.43
2019-02-02T09:48:06.653Z,8.50
2019-02-02T09:50:36.216Z,4.73
2019-02-02T09:53:05.969Z,6.37
2019-02-02T09:55:35.745Z,7.97
2019-02-02T09:58:08.999Z,7.33
2019-02-02T10:00:38.770Z,8.07
2019-02-02T10:03:08.354Z,8.77
2019-02-02T10:05:37.984Z,10.83
2019-02-02T10:08:07.618Z,8.10
2019-02-02T10:10:37.326Z,8.40
2019-02-02T10:13:07.924Z,10.27
2019-02-02T10:15:37.581Z,8.80
2019-02-02T10:18:07.320Z,3.40
2019-02-02T10:20:36.851Z,6.43
2019-02-02T10:23:06.478Z,6.30
2019-02-02T10:25:36.016Z,3.60
2019-02-02T10:28:05.744Z,5.80
2019-02-02T10:30:43.098Z,7.07
2019-02-02T10:33:13.757Z,8.13
2019-02-02T10:35:43.305Z,8.27
2019-02-02T10:38:16.088Z,18.10
2019-02-02T10:40:48.967Z,9.63
2019-02-02T10:43:21.648Z,10.60
2019-02-02T10:45:51.244Z,7.67
2019-02-02T10:48:20.875Z,9.43
2019-02-02T10:50:50.575Z,9.30
2019-02-02T10:53:20.090Z,11.50
2019-02-02T10:55:49.675Z,9.63
2019-02-02T10:58:19.253Z,10.50
2019-02-02T11:00:48.811Z,10.47
2019-02-02T11:03:18.458Z,14.90
2019-02-02T11:05:48.122Z,2.90
2019-02-02T11:08:17.664Z,3.40
2019-02-02T11:10:47.320Z,2.17
2019-02-02T11:13:16.911Z,2.17
2019-02-02T11:15:46.490Z,2.20
2019-02-02T11:18:16.201Z,3.10
2019-02-02T11:20:46.014Z,3.87
2019-02-02T11:23:15.638Z,6.13
2019-02-02T11:25:45.481Z,5.67
2019-02-02T11:28:18.453Z,6.30
2019-02-02T11:30:48.052Z,4.57
2019-02-02T11:33:17.550Z,3.00
2019-02-02T11:35:47.217Z,2.00
2019-02-02T11:38:16.811Z,1.70
2019-02-02T11:40:46.367Z,8.10
2019-02-02T11:43:16.064Z,6.30
2019-02-02T11:45:45.679Z,6.33
2019-02-02T11:48:15.313Z,5.30
2019-02-02T11:50:44.947Z,3.43
2019-02-02T11:53:14.492Z,5.23
2019-02-02T11:55:44.113Z,4.10
2019-02-02T11:58:13.636Z,2.37
2019-02-02T12:00:43.723Z,2.80
2019-02-02T12:03:13.390Z,2.93
2019-02-02T12:05:42.991Z,2.50
2019-02-02T12:08:12.545Z,2.50
2019-02-02T12:10:42.163Z,2.70
2019-02-02T12:13:11.811Z,2.90
2019-02-02T12:15:41.361Z,2.50
2019-02-02T12:18:11.940Z,2.63
2019-02-02T12:20:41.671Z,3.20
2019-02-02T12:23:11.224Z,4.50
2019-02-02T12:25:40.884Z,5.10
2019-02-02T12:28:10.454Z,10.43
2019-02-02T12:30:40.074Z,8.23
2019-02-02T12:33:09.633Z,8.87
2019-02-02T12:35:39.199Z,7.83
2019-02-02T12:38:08.854Z,11.60
2019-02-02T12:40:38.624Z,7.80
2019-02-02T12:43:08.175Z,6.40
2019-02-02T12:45:41.344Z,10.97
2019-02-02T12:48:11.040Z,5.47
2019-02-02T12:50:40.597Z,3.83
2019-02-02T12:53:10.323Z,10.87
2019-02-02T12:55:39.869Z,9.60
2019-02-02T12:58:09.581Z,6.13
2019-02-02T13:00:39.272Z,9.47
2019-02-02T13:03:09.243Z,7.83
2019-02-02T13:05:39.355Z,5.80
2019-02-02T13:08:09.027Z,2.73
2019-02-02T13:10:38.567Z,4.30
2019-02-02T13:13:08.135Z,5.77
2019-02-02T13:15:37.708Z,5.57
2019-02-02T13:18:07.449Z,5.10
2019-02-02T13:20:37.115Z,4.30
2019-02-02T13:23:06.675Z,3.93
2019-02-02T13:25:36.223Z,3.43
2019-02-02T13:28:05.784Z,3.33
2019-02-02T13:30:36.382Z,4.33
2019-02-02T13:33:08.884Z,4.20
2019-02-02T13:35:41.036Z,4.83
2019-02-02T13:38:10.579Z,3.30
2019-02-02T13:40:40.104Z,4.10
2019-02-02T13:43:09.695Z,4.33
2019-02-02T13:45:39.173Z,4.73
2019-02-02T13:48:08.818Z,5.00
2019-02-02T13:50:38.465Z,6.83
2019-02-02T13:53:08.920Z,5.37
2019-02-02T13:55:39.866Z,5.70
2019-02-02T13:58:09.611Z,7.67
2019-02-02T14:00:39.177Z,7.53
2019-02-02T14:03:08.755Z,6.93
2019-02-02T14:05:38.808Z,7.20
2019-02-02T14:08:08.371Z,6.60
2019-02-02T14:10:38.029Z,5.50
2019-02-02T14:13:10.628Z,5.30
2019-02-02T14:15:40.644Z,5.17
2019-02-02T14:18:10.188Z,8.17
2019-02-02T14:20:39.721Z,6.80
2019-02-02T14:23:09.435Z,9.10
2019-02-02T14:25:39.047Z,6.63
2019-02-02T14:28:08.575Z,7.40
2019-02-02T14:30:38.294Z,7.77
2019-02-02T14:33:14.138Z,7.63
2019-02-02T14:35:39.325Z,5.57
2019-02-02T14:38:08.923Z,11.17
2019-02-02T14:40:38.643Z,7.70
2019-02-02T14:43:08.354Z,38.80
2019-02-02T14:45:37.867Z,9.63
2019-02-02T14:48:07.553Z,6.70
2019-02-02T14:50:37.110Z,6.43
2019-02-02T14:53:06.693Z,7.80
2019-02-02T14:55:36.251Z,11.60
2019-02-02T14:58:06.714Z,9.67
2019-02-02T15:00:36.326Z,7.23
2019-02-02T15:03:05.920Z,10.80
2019-02-02T15:05:43.113Z,23.87
2019-02-02T15:08:06.821Z,7.90
2019-02-02T15:10:36.372Z,12.30
2019-02-02T15:13:05.948Z,6.50
2019-02-02T15:15:35.523Z,6.60
2019-02-02T15:18:05.099Z,9.40
2019-02-02T15:20:38.430Z,6.40
2019-02-02T15:23:08.323Z,7.20
2019-02-02T15:25:37.895Z,8.23
2019-02-02T15:28:07.624Z,8.30
2019-02-02T15:30:37.588Z,8.57
2019-02-02T15:33:07.510Z,10.43
2019-02-02T15:35:37.139Z,10.53
2019-02-02T15:38:06.805Z,10.90
2019-02-02T15:40:36.422Z,9.07
2019-02-02T15:43:06.241Z,9.90
2019-02-02T15:45:35.909Z,10.00
2019-02-02T15:48:05.625Z,7.33
2019-02-02T15:50:35.236Z,10.90
2019-02-02T15:53:04.839Z,9.80
2019-02-02T15:55:34.442Z,10.30
2019-02-02T15:58:04.029Z,9.30
2019-02-02T16:00:35.627Z,14.23
2019-02-02T16:03:05.241Z,26.40
2019-02-02T16:05:35.478Z,17.20
2019-02-02T16:08:08.112Z,13.23
2019-02-02T16:10:38.242Z,13.20
2019-02-02T16:13:07.937Z,24.70
2019-02-02T16:15:37.488Z,10.90
2019-02-02T16:18:07.138Z,14.50
2019-02-02T16:20:41.774Z,11.40
2019-02-02T16:23:10.089Z,13.27
2019-02-02T16:25:39.811Z,10.57
2019-02-02T16:28:09.425Z,12.30
2019-02-02T16:30:39.031Z,13.13
2019-02-02T16:33:08.566Z,14.20
2019-02-02T16:35:38.334Z,10.27
2019-02-02T16:38:07.901Z,14.10
2019-02-02T16:40:37.421Z,9.67
2019-02-02T16:43:07.135Z,13.93
2019-02-02T16:45:36.724Z,9.90
2019-02-02T16:48:06.906Z,11.13
2019-02-02T16:50:36.518Z,10.50
2019-02-02T16:53:06.168Z,8.27
2019-02-02T16:55:35.715Z,13.37
2019-02-02T16:58:05.525Z,17.90
2019-02-02T17:00:35.128Z,23.70
2019-02-02T17:03:04.655Z,25.97
2019-02-02T17:05:34.277Z,33.27
2019-02-02T17:08:03.840Z,34.23
2019-02-02T17:10:35.381Z,35.50
2019-02-02T17:13:05.217Z,37.93
2019-02-02T17:15:34.785Z,37.80
2019-02-02T17:18:04.641Z,35.30
2019-02-02T17:20:36.522Z,51.57
2019-02-02T17:23:06.246Z,42.10
2019-02-02T17:25:35.853Z,19.67
2019-02-02T17:28:05.908Z,33.03
2019-02-02T17:30:35.508Z,24.27
2019-02-02T17:33:07.577Z,19.83
2019-02-02T17:35:37.117Z,9.37
2019-02-02T17:38:06.673Z,9.30
2019-02-02T17:40:36.243Z,7.90
2019-02-02T17:43:05.763Z,8.53
2019-02-02T17:45:35.293Z,7.70
2019-02-02T17:48:04.907Z,9.60
2019-02-02T17:50:34.476Z,5.50
2019-02-02T17:53:04.014Z,5.97
2019-02-02T17:55:33.575Z,4.70
2019-02-02T17:58:03.129Z,5.33
2019-02-02T18:00:43.663Z,4.23
2019-02-02T18:03:13.301Z,5.07
2019-02-02T18:05:42.899Z,5.17
2019-02-02T18:08:12.462Z,5.70
2019-02-02T18:10:42.160Z,4.10
2019-02-02T18:13:11.759Z,5.50
2019-02-02T18:15:41.445Z,5.73
2019-02-02T18:18:11.187Z,7.60
2019-02-02T18:20:40.895Z,7.00
2019-02-02T18:23:10.425Z,4.73
2019-02-02T18:25:40.050Z,4.90
2019-02-02T18:28:09.610Z,5.10
2019-02-02T18:30:39.258Z,5.07
2019-02-02T18:33:08.923Z,4.90
2019-02-02T18:35:38.487Z,5.37
2019-02-02T18:38:08.149Z,5.90
2019-02-02T18:40:39.975Z,5.40
2019-02-02T18:43:09.089Z,5.07
2019-02-02T18:45:38.781Z,5.10
2019-02-02T18:48:08.412Z,4.70
2019-02-02T18:50:38.103Z,7.23
2019-02-02T18:53:07.653Z,7.00
2019-02-02T18:55:43.103Z,5.90
2019-02-02T18:58:13.006Z,5.30
2019-02-02T19:00:42.979Z,5.23
2019-02-02T19:03:13.517Z,5.53
2019-02-02T19:05:43.761Z,5.40
2019-02-02T19:08:13.302Z,4.60
2019-02-02T19:10:43.394Z,10.20
2019-02-02T19:13:12.932Z,8.30
2019-02-02T19:15:42.554Z,8.10
2019-02-02T19:18:12.097Z,9.47
2019-02-02T19:20:44.872Z,5.47
2019-02-02T19:23:24.872Z,5.83
2019-02-02T19:25:45.885Z,4.20
2019-02-02T19:28:15.420Z,5.03
2019-02-02T19:30:45.043Z,6.33
2019-02-02T19:33:14.582Z,7.10
2019-02-02T19:35:44.150Z,4.53
2019-02-02T19:38:13.789Z,3.33
2019-02-02T19:40:43.348Z,2.73
2019-02-02T19:43:13.002Z,2.67
2019-02-02T19:45:42.586Z,2.70
2019-02-02T19:48:12.215Z,3.30
2019-02-02T19:50:41.906Z,3.40
2019-02-02T19:53:11.489Z,2.80
2019-02-02T19:55:40.995Z,2.80
2019-02-02T19:58:10.542Z,3.17
2019-02-02T20:00:40.100Z,2.73
2019-02-02T20:03:09.742Z,3.30
2019-02-02T20:05:44.265Z,4.50
2019-02-02T20:08:13.901Z,2.60
2019-02-02T20:10:43.576Z,3.77
2019-02-02T20:13:13.179Z,3.20
2019-02-02T20:15:42.797Z,7.60
2019-02-02T20:18:12.340Z,9.77
2019-02-02T20:20:46.362Z,9.90
2019-02-02T20:23:16.192Z,12.20
2019-02-02T20:25:48.936Z,16.33
2019-02-02T20:28:19.957Z,18.10
2019-02-02T20:30:49.684Z,24.00
2019-02-02T20:33:20.097Z,23.30
2019-02-02T20:35:50.078Z,17.40
2019-02-02T20:38:19.735Z,22.87
2019-02-02T20:40:49.303Z,20.43
2019-02-02T20:43:19.260Z,25.40
2019-02-02T20:45:51.999Z,10.50
2019-02-02T20:48:21.680Z,13.90
2019-02-02T20:50:51.399Z,17.57
2019-02-02T20:53:21.386Z,7.10
2019-02-02T20:55:51.012Z,5.17
2019-02-02T20:58:20.904Z,4.87
2019-02-02T21:00:50.574Z,10.57
2019-02-02T21:03:20.298Z,21.50
2019-02-02T21:05:52.340Z,16.90
2019-02-02T21:08:21.668Z,7.87
2019-02-02T21:10:51.471Z,6.27
2019-02-02T21:13:21.208Z,8.20
2019-02-02T21:15:50.987Z,10.07
2019-02-02T21:18:20.805Z,6.10
2019-02-02T21:20:50.459Z,19.80
2019-02-02T21:23:21.240Z,28.77
2019-02-02T21:25:51.244Z,36.67
2019-02-02T21:28:21.092Z,31.13
2019-02-02T21:30:50.923Z,20.43
2019-02-02T21:33:20.607Z,21.00
2019-02-02T21:35:50.578Z,10.50
2019-02-02T21:38:21.797Z,8.70
2019-02-02T21:40:51.404Z,8.73
2019-02-02T21:43:21.224Z,9.37
2019-02-02T21:45:50.776Z,8.97
2019-02-02T21:48:20.431Z,31.13
2019-02-02T21:50:50.005Z,19.87
2019-02-02T21:53:19.653Z,14.50
2019-02-02T21:55:49.352Z,9.37
2019-02-02T21:58:19.094Z,15.83
2019-02-02T22:00:48.738Z,18.47
2019-02-02T22:03:18.449Z,16.27
2019-02-02T22:05:48.012Z,16.90
2019-02-02T22:08:17.663Z,18.40
2019-02-02T22:10:47.294Z,12.37
2019-02-02T22:13:16.955Z,11.77
2019-02-02T22:15:46.619Z,14.60
2019-02-02T22:18:16.252Z,4.37
2019-02-02T22:20:45.868Z,18.80
2019-02-02T22:23:15.399Z,19.20
2019-02-02T22:25:45.029Z,13.00
2019-02-02T22:28:14.619Z,13.40
2019-02-02T22:30:44.155Z,7.80
2019-02-02T22:33:13.679Z,4.73
2019-02-02T22:35:43.551Z,3.13
2019-02-02T22:38:13.076Z,4.00
2019-02-02T22:40:42.646Z,11.97
2019-02-02T22:43:12.371Z,10.00
2019-02-02T22:45:42.109Z,9.53
2019-02-02T22:48:12.138Z,9.20
2019-02-02T22:50:41.711Z,10.13
2019-02-02T22:53:11.241Z,5.80
2019-02-02T22:55:40.813Z,4.63
2019-02-02T22:58:10.364Z,5.03
2019-02-02T23:01:09.843Z,5.03
2019-02-02T23:03:48.381Z,5.10
2019-02-02T23:06:54.050Z,5.50
2019-02-02T23:10:15.369Z,9.93
2019-02-02T23:13:15.844Z,15.73
2019-02-02T23:16:26.450Z,19.07
2019-02-02T23:18:56.188Z,17.73
2019-02-02T23:21:26.246Z,13.63
2019-02-02T23:23:55.967Z,16.00
2019-02-02T23:26:25.597Z,14.20
2019-02-02T23:28:55.272Z,15.23
2019-02-02T23:31:25.303Z,13.67
2019-02-02T23:33:54.910Z,13.27
2019-02-02T23:36:24.646Z,13.10
2019-02-02T23:38:54.228Z,14.63
2019-02-02T23:41:23.841Z,14.50
2019-02-02T23:43:53.771Z,14.43
2019-02-02T23:46:23.350Z,12.67
2019-02-02T23:48:52.964Z,14.70
2019-02-02T23:51:22.669Z,14.60
2019-02-02T23:53:52.378Z,16.97
2019-02-02T23:56:22.002Z,12.77
2019-02-02T23:58:51.518Z,16.93
